sensor_id;sensor_type;location;lat;lon;timestamp;temperature;humidity
8475;DHT22;4274;52.012;8.448;2023-05-07T00:01:36;13.10;99.90
8475;DHT22;4274;52.012;8.448;2023-05-07T00:04:02;13.00;99.90
8475;DHT22;4274;52.012;8.448;2023-05-07T00:06:29;13.00;99.90
8475;DHT22;4274;52.012;8.448;2023-05-07T00:08:55;13.00;99.90
8475;DHT22;4274;52.012;8.448;2023-05-07T00:11:21;12.90;99.90
8475;DHT22;4274;52.012;8.448;2023-05-07T00:13:47;12.90;99.90
8475;DHT22;4274;52.012;8.448;2023-05-07T00:16:13;12.90;99.90
8475;DHT22;4274;52.012;8.448;2023-05-07T00:18:39;12.90;99.90
8475;DHT22;4274;52.012;8.448;2023-05-07T00:21:05;12.90;99.90
8475;DHT22;4274;52.012;8.448;2023-05-07T00:23:30;12.80;99.90
8475;DHT22;4274;52.012;8.448;2023-05-07T00:25:56;12.80;99.90
8475;DHT22;4274;52.012;8.448;2023-05-07T00:28:22;12.80;99.90
8475;DHT22;4274;52.012;8.448;2023-05-07T00:30:47;12.70;99.90
8475;DHT22;4274;52.012;8.448;2023-05-07T00:33:13;12.70;99.90
8475;DHT22;4274;52.012;8.448;2023-05-07T00:35:38;12.60;99.90
8475;DHT22;4274;52.012;8.448;2023-05-07T00:38:04;12.60;99.90
8475;DHT22;4274;52.012;8.448;2023-05-07T00:40:29;12.50;99.90
8475;DHT22;4274;52.012;8.448;2023-05-07T00:42:55;12.50;99.90
8475;DHT22;4274;52.012;8.448;2023-05-07T00:45:25;12.50;99.90
8475;DHT22;4274;52.012;8.448;2023-05-07T00:47:54;12.50;99.90
8475;DHT22;4274;52.012;8.448;2023-05-07T00:50:19;12.40;99.90
8475;DHT22;4274;52.012;8.448;2023-05-07T00:52:45;12.50;99.90
8475;DHT22;4274;52.012;8.448;2023-05-07T00:55:11;12.50;99.90
8475;DHT22;4274;52.012;8.448;2023-05-07T00:57:40;12.50;99.90
8475;DHT22;4274;52.012;8.448;2023-05-07T01:00:07;12.50;99.90
8475;DHT22;4274;52.012;8.448;2023-05-07T01:02:34;12.40;99.90
8475;DHT22;4274;52.012;8.448;2023-05-07T01:05:01;12.50;99.90
8475;DHT22;4274;52.012;8.448;2023-05-07T01:07:27;12.50;99.90
8475;DHT22;4274;52.012;8.448;2023-05-07T01:09:53;12.50;99.90
8475;DHT22;4274;52.012;8.448;2023-05-07T01:12:19;12.40;99.90
8475;DHT22;4274;52.012;8.448;2023-05-07T01:14:45;12.40;99.90
8475;DHT22;4274;52.012;8.448;2023-05-07T01:17:11;12.40;99.90
8475;DHT22;4274;52.012;8.448;2023-05-07T01:19:36;12.40;99.90
8475;DHT22;4274;52.012;8.448;2023-05-07T01:22:10;12.40;99.90
8475;DHT22;4274;52.012;8.448;2023-05-07T01:24:37;12.40;99.90
8475;DHT22;4274;52.012;8.448;2023-05-07T01:27:03;12.30;99.90
8475;DHT22;4274;52.012;8.448;2023-05-07T01:29:29;12.30;99.90
8475;DHT22;4274;52.012;8.448;2023-05-07T01:31:57;12.20;99.90
8475;DHT22;4274;52.012;8.448;2023-05-07T01:34:25;12.20;99.90
8475;DHT22;4274;52.012;8.448;2023-05-07T01:36:53;12.20;99.90
8475;DHT22;4274;52.012;8.448;2023-05-07T01:39:19;12.10;99.90
8475;DHT22;4274;52.012;8.448;2023-05-07T01:41:45;12.10;99.90
8475;DHT22;4274;52.012;8.448;2023-05-07T01:44:12;12.00;99.90
8475;DHT22;4274;52.012;8.448;2023-05-07T01:46:38;12.00;99.90
8475;DHT22;4274;52.012;8.448;2023-05-07T01:49:04;12.00;99.90
8475;DHT22;4274;52.012;8.448;2023-05-07T01:51:30;12.00;99.90
8475;DHT22;4274;52.012;8.448;2023-05-07T01:53:56;11.90;99.90
8475;DHT22;4274;52.012;8.448;2023-05-07T01:56:24;11.90;99.90
8475;DHT22;4274;52.012;8.448;2023-05-07T01:58:50;11.90;99.90
8475;DHT22;4274;52.012;8.448;2023-05-07T02:01:16;11.80;99.90
8475;DHT22;4274;52.012;8.448;2023-05-07T02:03:42;11.80;99.90
8475;DHT22;4274;52.012;8.448;2023-05-07T02:06:08;11.80;99.90
8475;DHT22;4274;52.012;8.448;2023-05-07T02:08:33;11.80;99.90
8475;DHT22;4274;52.012;8.448;2023-05-07T02:10:59;11.90;99.90
8475;DHT22;4274;52.012;8.448;2023-05-07T02:13:26;11.90;99.90
8475;DHT22;4274;52.012;8.448;2023-05-07T02:15:52;11.80;99.90
8475;DHT22;4274;52.012;8.448;2023-05-07T02:18:18;11.80;99.90
8475;DHT22;4274;52.012;8.448;2023-05-07T02:20:44;11.80;99.90
8475;DHT22;4274;52.012;8.448;2023-05-07T02:23:09;11.80;99.90
8475;DHT22;4274;52.012;8.448;2023-05-07T02:25:35;11.80;99.90
8475;DHT22;4274;52.012;8.448;2023-05-07T02:28:01;11.80;99.90
8475;DHT22;4274;52.012;8.448;2023-05-07T02:30:26;11.80;99.90
8475;DHT22;4274;52.012;8.448;2023-05-07T02:32:52;11.80;99.90
8475;DHT22;4274;52.012;8.448;2023-05-07T02:35:17;11.80;99.90
8475;DHT22;4274;52.012;8.448;2023-05-07T02:37:43;11.80;99.90
8475;DHT22;4274;52.012;8.448;2023-05-07T02:40:09;11.80;99.90
8475;DHT22;4274;52.012;8.448;2023-05-07T02:42:35;11.80;99.90
8475;DHT22;4274;52.012;8.448;2023-05-07T02:45:00;11.70;99.90
8475;DHT22;4274;52.012;8.448;2023-05-07T02:47:26;11.70;99.90
8475;DHT22;4274;52.012;8.448;2023-05-07T02:49:55;11.60;99.90
8475;DHT22;4274;52.012;8.448;2023-05-07T02:52:21;11.60;99.90
8475;DHT22;4274;52.012;8.448;2023-05-07T02:54:47;11.60;99.90
8475;DHT22;4274;52.012;8.448;2023-05-07T02:57:12;11.50;99.90
8475;DHT22;4274;52.012;8.448;2023-05-07T02:59:38;11.50;99.90
8475;DHT22;4274;52.012;8.448;2023-05-07T03:02:03;11.40;99.90
8475;DHT22;4274;52.012;8.448;2023-05-07T03:04:29;11.40;99.90
8475;DHT22;4274;52.012;8.448;2023-05-07T03:06:55;11.40;99.90
8475;DHT22;4274;52.012;8.448;2023-05-07T03:09:20;11.50;99.90
8475;DHT22;4274;52.012;8.448;2023-05-07T03:11:46;11.40;99.90
8475;DHT22;4274;52.012;8.448;2023-05-07T03:14:11;11.40;99.90
8475;DHT22;4274;52.012;8.448;2023-05-07T03:16:37;11.40;99.90
8475;DHT22;4274;52.012;8.448;2023-05-07T03:19:03;11.40;99.90
8475;DHT22;4274;52.012;8.448;2023-05-07T03:21:28;11.50;99.90
8475;DHT22;4274;52.012;8.448;2023-05-07T03:23:55;11.50;99.90
8475;DHT22;4274;52.012;8.448;2023-05-07T03:26:21;11.50;99.90
8475;DHT22;4274;52.012;8.448;2023-05-07T03:28:47;11.50;99.90
8475;DHT22;4274;52.012;8.448;2023-05-07T03:31:12;11.50;99.90
8475;DHT22;4274;52.012;8.448;2023-05-07T03:33:52;11.50;99.90
8475;DHT22;4274;52.012;8.448;2023-05-07T03:36:18;11.50;99.90
8475;DHT22;4274;52.012;8.448;2023-05-07T03:38:44;11.40;99.90
8475;DHT22;4274;52.012;8.448;2023-05-07T03:41:09;11.40;99.90
8475;DHT22;4274;52.012;8.448;2023-05-07T03:43:35;11.40;99.90
8475;DHT22;4274;52.012;8.448;2023-05-07T03:46:01;11.40;99.90
8475;DHT22;4274;52.012;8.448;2023-05-07T03:48:26;11.40;99.90
8475;DHT22;4274;52.012;8.448;2023-05-07T03:50:52;11.40;99.90
8475;DHT22;4274;52.012;8.448;2023-05-07T03:53:17;11.40;99.90
8475;DHT22;4274;52.012;8.448;2023-05-07T03:55:43;11.40;99.90
8475;DHT22;4274;52.012;8.448;2023-05-07T03:58:08;11.40;99.90
8475;DHT22;4274;52.012;8.448;2023-05-07T04:00:34;11.40;99.90
8475;DHT22;4274;52.012;8.448;2023-05-07T04:03:04;11.40;99.90
8475;DHT22;4274;52.012;8.448;2023-05-07T04:05:30;11.40;99.90
8475;DHT22;4274;52.012;8.448;2023-05-07T04:07:57;11.40;99.90
8475;DHT22;4274;52.012;8.448;2023-05-07T04:10:23;11.40;99.90
8475;DHT22;4274;52.012;8.448;2023-05-07T04:12:48;11.40;99.90
8475;DHT22;4274;52.012;8.448;2023-05-07T04:15:14;11.40;99.90
8475;DHT22;4274;52.012;8.448;2023-05-07T04:17:40;11.40;99.90
8475;DHT22;4274;52.012;8.448;2023-05-07T04:20:10;11.40;99.90
8475;DHT22;4274;52.012;8.448;2023-05-07T04:22:36;11.40;99.90
8475;DHT22;4274;52.012;8.448;2023-05-07T04:25:02;11.40;99.90
8475;DHT22;4274;52.012;8.448;2023-05-07T04:27:28;11.50;99.90
8475;DHT22;4274;52.012;8.448;2023-05-07T04:29:53;11.50;99.90
8475;DHT22;4274;52.012;8.448;2023-05-07T04:32:21;11.50;99.90
8475;DHT22;4274;52.012;8.448;2023-05-07T04:34:47;11.50;99.90
8475;DHT22;4274;52.012;8.448;2023-05-07T04:37:13;11.50;99.90
8475;DHT22;4274;52.012;8.448;2023-05-07T04:39:38;11.50;99.90
8475;DHT22;4274;52.012;8.448;2023-05-07T04:42:04;11.50;99.90
8475;DHT22;4274;52.012;8.448;2023-05-07T04:44:29;11.50;99.90
8475;DHT22;4274;52.012;8.448;2023-05-07T04:46:56;11.50;99.90
8475;DHT22;4274;52.012;8.448;2023-05-07T04:49:22;11.50;99.90
8475;DHT22;4274;52.012;8.448;2023-05-07T04:51:48;11.50;99.90
8475;DHT22;4274;52.012;8.448;2023-05-07T04:54:13;11.50;99.90
8475;DHT22;4274;52.012;8.448;2023-05-07T04:56:39;11.50;99.90
8475;DHT22;4274;52.012;8.448;2023-05-07T04:59:04;11.50;99.90
8475;DHT22;4274;52.012;8.448;2023-05-07T05:01:31;11.50;99.90
8475;DHT22;4274;52.012;8.448;2023-05-07T05:03:56;11.50;99.90
8475;DHT22;4274;52.012;8.448;2023-05-07T05:06:22;11.50;99.90
8475;DHT22;4274;52.012;8.448;2023-05-07T05:08:47;11.50;99.90
8475;DHT22;4274;52.012;8.448;2023-05-07T05:11:13;11.50;99.90
8475;DHT22;4274;52.012;8.448;2023-05-07T05:13:39;11.50;99.90
8475;DHT22;4274;52.012;8.448;2023-05-07T05:16:05;11.50;99.90
8475;DHT22;4274;52.012;8.448;2023-05-07T05:18:31;11.60;99.90
8475;DHT22;4274;52.012;8.448;2023-05-07T05:20:56;11.60;99.90
8475;DHT22;4274;52.012;8.448;2023-05-07T05:23:22;11.60;99.90
8475;DHT22;4274;52.012;8.448;2023-05-07T05:25:47;11.60;99.90
8475;DHT22;4274;52.012;8.448;2023-05-07T05:28:13;11.70;99.90
8475;DHT22;4274;52.012;8.448;2023-05-07T05:30:39;11.70;99.90
8475;DHT22;4274;52.012;8.448;2023-05-07T05:33:04;11.80;99.90
8475;DHT22;4274;52.012;8.448;2023-05-07T05:35:30;11.80;99.90
8475;DHT22;4274;52.012;8.448;2023-05-07T05:37:56;11.80;99.90
8475;DHT22;4274;52.012;8.448;2023-05-07T05:40:21;11.80;99.90
8475;DHT22;4274;52.012;8.448;2023-05-07T05:42:47;11.90;99.90
8475;DHT22;4274;52.012;8.448;2023-05-07T05:45:12;11.90;99.90
8475;DHT22;4274;52.012;8.448;2023-05-07T05:47:38;12.00;99.90
8475;DHT22;4274;52.012;8.448;2023-05-07T05:50:05;12.00;99.90
8475;DHT22;4274;52.012;8.448;2023-05-07T05:52:31;12.10;99.90
8475;DHT22;4274;52.012;8.448;2023-05-07T05:54:57;12.20;99.90
8475;DHT22;4274;52.012;8.448;2023-05-07T05:57:22;12.30;99.90
8475;DHT22;4274;52.012;8.448;2023-05-07T05:59:48;12.30;99.90
8475;DHT22;4274;52.012;8.448;2023-05-07T06:02:14;12.30;99.90
8475;DHT22;4274;52.012;8.448;2023-05-07T06:04:39;12.40;99.90
8475;DHT22;4274;52.012;8.448;2023-05-07T06:07:05;12.40;99.90
8475;DHT22;4274;52.012;8.448;2023-05-07T06:09:30;12.50;99.90
8475;DHT22;4274;52.012;8.448;2023-05-07T06:11:56;12.50;99.90
8475;DHT22;4274;52.012;8.448;2023-05-07T06:14:21;12.60;99.90
8475;DHT22;4274;52.012;8.448;2023-05-07T06:16:47;12.60;99.90
8475;DHT22;4274;52.012;8.448;2023-05-07T06:19:12;12.60;99.90
8475;DHT22;4274;52.012;8.448;2023-05-07T06:21:39;12.70;99.90
8475;DHT22;4274;52.012;8.448;2023-05-07T06:24:05;12.70;99.90
8475;DHT22;4274;52.012;8.448;2023-05-07T06:26:31;12.80;99.90
8475;DHT22;4274;52.012;8.448;2023-05-07T06:28:56;12.90;99.90
8475;DHT22;4274;52.012;8.448;2023-05-07T06:31:22;12.90;99.90
8475;DHT22;4274;52.012;8.448;2023-05-07T06:33:49;13.00;99.90
8475;DHT22;4274;52.012;8.448;2023-05-07T06:36:15;13.00;99.90
8475;DHT22;4274;52.012;8.448;2023-05-07T06:38:41;13.10;99.90
8475;DHT22;4274;52.012;8.448;2023-05-07T06:41:06;13.20;99.90
8475;DHT22;4274;52.012;8.448;2023-05-07T06:43:32;13.10;99.90
8475;DHT22;4274;52.012;8.448;2023-05-07T06:45:58;13.20;99.90
8475;DHT22;4274;52.012;8.448;2023-05-07T06:48:24;13.20;99.90
8475;DHT22;4274;52.012;8.448;2023-05-07T06:50:50;13.20;99.90
8475;DHT22;4274;52.012;8.448;2023-05-07T06:53:15;13.30;99.90
8475;DHT22;4274;52.012;8.448;2023-05-07T06:55:41;13.30;99.90
8475;DHT22;4274;52.012;8.448;2023-05-07T06:58:07;13.40;99.90
8475;DHT22;4274;52.012;8.448;2023-05-07T07:00:32;13.40;99.90
8475;DHT22;4274;52.012;8.448;2023-05-07T07:02:58;13.50;99.90
8475;DHT22;4274;52.012;8.448;2023-05-07T07:05:24;13.50;99.90
8475;DHT22;4274;52.012;8.448;2023-05-07T07:07:50;13.60;99.90
8475;DHT22;4274;52.012;8.448;2023-05-07T07:10:19;13.70;99.90
8475;DHT22;4274;52.012;8.448;2023-05-07T07:12:45;13.90;99.90
8475;DHT22;4274;52.012;8.448;2023-05-07T07:15:10;14.00;99.90
8475;DHT22;4274;52.012;8.448;2023-05-07T07:17:36;14.10;99.90
8475;DHT22;4274;52.012;8.448;2023-05-07T07:20:02;14.30;99.90
8475;DHT22;4274;52.012;8.448;2023-05-07T07:22:28;14.40;99.90
8475;DHT22;4274;52.012;8.448;2023-05-07T07:24:54;14.50;99.90
8475;DHT22;4274;52.012;8.448;2023-05-07T07:27:19;14.50;99.90
8475;DHT22;4274;52.012;8.448;2023-05-07T07:29:45;14.50;99.90
8475;DHT22;4274;52.012;8.448;2023-05-07T07:32:10;14.60;99.90
8475;DHT22;4274;52.012;8.448;2023-05-07T07:34:36;14.70;99.90
8475;DHT22;4274;52.012;8.448;2023-05-07T07:37:01;14.80;99.90
8475;DHT22;4274;52.012;8.448;2023-05-07T07:39:31;14.80;99.90
8475;DHT22;4274;52.012;8.448;2023-05-07T07:41:56;14.70;99.90
8475;DHT22;4274;52.012;8.448;2023-05-07T07:44:22;14.60;99.90
8475;DHT22;4274;52.012;8.448;2023-05-07T07:46:47;14.60;99.90
8475;DHT22;4274;52.012;8.448;2023-05-07T07:49:13;14.70;99.90
8475;DHT22;4274;52.012;8.448;2023-05-07T07:51:39;14.70;99.90
8475;DHT22;4274;52.012;8.448;2023-05-07T07:54:04;14.70;99.90
8475;DHT22;4274;52.012;8.448;2023-05-07T07:56:31;14.80;99.90
8475;DHT22;4274;52.012;8.448;2023-05-07T07:58:57;14.90;99.90
8475;DHT22;4274;52.012;8.448;2023-05-07T08:01:22;15.00;99.90
8475;DHT22;4274;52.012;8.448;2023-05-07T08:03:48;15.10;99.90
8475;DHT22;4274;52.012;8.448;2023-05-07T08:06:14;15.10;99.90
8475;DHT22;4274;52.012;8.448;2023-05-07T08:08:39;15.20;99.90
8475;DHT22;4274;52.012;8.448;2023-05-07T08:11:05;15.30;99.90
8475;DHT22;4274;52.012;8.448;2023-05-07T08:13:31;15.50;99.90
8475;DHT22;4274;52.012;8.448;2023-05-07T08:15:56;15.70;99.90
8475;DHT22;4274;52.012;8.448;2023-05-07T08:18:22;15.70;99.90
8475;DHT22;4274;52.012;8.448;2023-05-07T08:20:50;15.60;99.90
8475;DHT22;4274;52.012;8.448;2023-05-07T08:23:15;15.40;99.90
8475;DHT22;4274;52.012;8.448;2023-05-07T08:25:41;15.50;99.90
8475;DHT22;4274;52.012;8.448;2023-05-07T08:28:08;15.50;99.90
8475;DHT22;4274;52.012;8.448;2023-05-07T08:30:33;15.50;99.90
8475;DHT22;4274;52.012;8.448;2023-05-07T08:33:00;15.50;99.90
8475;DHT22;4274;52.012;8.448;2023-05-07T08:35:25;15.50;99.90
8475;DHT22;4274;52.012;8.448;2023-05-07T08:37:52;15.60;99.90
8475;DHT22;4274;52.012;8.448;2023-05-07T08:40:18;15.50;99.90
8475;DHT22;4274;52.012;8.448;2023-05-07T08:42:44;15.50;99.90
8475;DHT22;4274;52.012;8.448;2023-05-07T08:45:10;15.60;99.90
8475;DHT22;4274;52.012;8.448;2023-05-07T08:47:43;15.60;99.90
8475;DHT22;4274;52.012;8.448;2023-05-07T08:50:12;15.80;99.90
8475;DHT22;4274;52.012;8.448;2023-05-07T08:52:39;15.90;99.90
8475;DHT22;4274;52.012;8.448;2023-05-07T08:55:07;16.10;99.90
8475;DHT22;4274;52.012;8.448;2023-05-07T08:57:32;16.20;99.90
8475;DHT22;4274;52.012;8.448;2023-05-07T08:59:58;16.10;99.90
8475;DHT22;4274;52.012;8.448;2023-05-07T09:02:24;16.00;99.90
8475;DHT22;4274;52.012;8.448;2023-05-07T09:04:49;16.00;99.90
8475;DHT22;4274;52.012;8.448;2023-05-07T09:07:16;16.00;99.90
8475;DHT22;4274;52.012;8.448;2023-05-07T09:09:43;16.10;99.90
8475;DHT22;4274;52.012;8.448;2023-05-07T09:12:09;16.30;99.90
8475;DHT22;4274;52.012;8.448;2023-05-07T09:14:35;16.40;99.90
8475;DHT22;4274;52.012;8.448;2023-05-07T09:17:01;16.40;99.90
8475;DHT22;4274;52.012;8.448;2023-05-07T09:19:26;16.70;99.90
8475;DHT22;4274;52.012;8.448;2023-05-07T09:22:02;16.90;99.90
8475;DHT22;4274;52.012;8.448;2023-05-07T09:24:28;17.00;99.90
8475;DHT22;4274;52.012;8.448;2023-05-07T09:26:59;17.10;99.90
8475;DHT22;4274;52.012;8.448;2023-05-07T09:29:25;17.30;99.90
8475;DHT22;4274;52.012;8.448;2023-05-07T09:31:51;17.50;99.90
8475;DHT22;4274;52.012;8.448;2023-05-07T09:34:16;17.80;99.90
8475;DHT22;4274;52.012;8.448;2023-05-07T09:36:42;18.10;99.90
8475;DHT22;4274;52.012;8.448;2023-05-07T09:39:07;18.30;99.90
8475;DHT22;4274;52.012;8.448;2023-05-07T09:41:43;18.30;99.90
8475;DHT22;4274;52.012;8.448;2023-05-07T09:44:09;18.30;99.90
8475;DHT22;4274;52.012;8.448;2023-05-07T09:46:36;18.40;99.90
8475;DHT22;4274;52.012;8.448;2023-05-07T09:49:07;18.70;99.90
8475;DHT22;4274;52.012;8.448;2023-05-07T09:52:00;19.00;99.90
8475;DHT22;4274;52.012;8.448;2023-05-07T09:54:26;19.30;99.90
8475;DHT22;4274;52.012;8.448;2023-05-07T09:56:54;19.40;99.90
8475;DHT22;4274;52.012;8.448;2023-05-07T09:59:21;19.30;99.90
8475;DHT22;4274;52.012;8.448;2023-05-07T10:01:48;19.30;99.90
8475;DHT22;4274;52.012;8.448;2023-05-07T10:04:14;19.50;99.90
8475;DHT22;4274;52.012;8.448;2023-05-07T10:06:40;19.80;99.90
8475;DHT22;4274;52.012;8.448;2023-05-07T10:09:07;20.20;99.90
8475;DHT22;4274;52.012;8.448;2023-05-07T10:11:36;20.50;99.90
8475;DHT22;4274;52.012;8.448;2023-05-07T10:14:03;20.70;99.90
8475;DHT22;4274;52.012;8.448;2023-05-07T10:16:35;20.90;99.90
8475;DHT22;4274;52.012;8.448;2023-05-07T10:19:05;20.90;99.90
8475;DHT22;4274;52.012;8.448;2023-05-07T10:21:35;21.20;99.90
8475;DHT22;4274;52.012;8.448;2023-05-07T10:24:08;21.00;99.90
8475;DHT22;4274;52.012;8.448;2023-05-07T10:26:45;21.20;99.90
8475;DHT22;4274;52.012;8.448;2023-05-07T10:34:55;21.70;99.90
8475;DHT22;4274;52.012;8.448;2023-05-07T10:37:21;21.70;99.90
8475;DHT22;4274;52.012;8.448;2023-05-07T10:39:47;21.40;99.90
8475;DHT22;4274;52.012;8.448;2023-05-07T10:42:14;21.40;99.90
8475;DHT22;4274;52.012;8.448;2023-05-07T10:44:40;21.90;99.90
8475;DHT22;4274;52.012;8.448;2023-05-07T10:47:13;22.10;99.90
8475;DHT22;4274;52.012;8.448;2023-05-07T10:52:18;22.10;99.90
8475;DHT22;4274;52.012;8.448;2023-05-07T10:54:45;22.30;99.90
8475;DHT22;4274;52.012;8.448;2023-05-07T10:59:58;22.10;99.90
8475;DHT22;4274;52.012;8.448;2023-05-07T11:02:23;21.90;99.90
8475;DHT22;4274;52.012;8.448;2023-05-07T11:05:24;21.70;99.90
8475;DHT22;4274;52.012;8.448;2023-05-07T11:08:00;21.70;99.90
8475;DHT22;4274;52.012;8.448;2023-05-07T11:10:54;21.90;99.90
8475;DHT22;4274;52.012;8.448;2023-05-07T11:13:43;22.20;99.90
8475;DHT22;4274;52.012;8.448;2023-05-07T11:16:22;22.50;99.90
8475;DHT22;4274;52.012;8.448;2023-05-07T11:18:53;22.30;99.90
8475;DHT22;4274;52.012;8.448;2023-05-07T11:23:58;22.20;99.90
8475;DHT22;4274;52.012;8.448;2023-05-07T11:26:24;22.10;99.90
8475;DHT22;4274;52.012;8.448;2023-05-07T11:28:51;22.10;99.90
8475;DHT22;4274;52.012;8.448;2023-05-07T11:31:21;22.00;99.90
8475;DHT22;4274;52.012;8.448;2023-05-07T11:33:48;21.80;99.90
8475;DHT22;4274;52.012;8.448;2023-05-07T11:36:15;21.80;99.90
8475;DHT22;4274;52.012;8.448;2023-05-07T11:38:41;21.80;99.90
8475;DHT22;4274;52.012;8.448;2023-05-07T11:41:07;21.90;99.90
8475;DHT22;4274;52.012;8.448;2023-05-07T11:43:33;21.90;99.90
8475;DHT22;4274;52.012;8.448;2023-05-07T11:46:09;21.80;99.90
8475;DHT22;4274;52.012;8.448;2023-05-07T11:48:36;21.70;99.90
8475;DHT22;4274;52.012;8.448;2023-05-07T11:51:03;21.80;99.90
8475;DHT22;4274;52.012;8.448;2023-05-07T11:53:37;22.10;99.90
8475;DHT22;4274;52.012;8.448;2023-05-07T11:56:10;22.10;99.90
8475;DHT22;4274;52.012;8.448;2023-05-07T11:58:36;22.20;99.90
8475;DHT22;4274;52.012;8.448;2023-05-07T12:01:02;22.00;99.90
8475;DHT22;4274;52.012;8.448;2023-05-07T12:03:28;22.00;99.90
8475;DHT22;4274;52.012;8.448;2023-05-07T12:05:54;22.00;99.90
8475;DHT22;4274;52.012;8.448;2023-05-07T12:08:20;22.20;99.90
8475;DHT22;4274;52.012;8.448;2023-05-07T12:10:50;22.10;99.90
8475;DHT22;4274;52.012;8.448;2023-05-07T12:13:17;22.00;99.90
8475;DHT22;4274;52.012;8.448;2023-05-07T12:15:43;22.10;99.90
8475;DHT22;4274;52.012;8.448;2023-05-07T12:18:10;21.80;99.90
8475;DHT22;4274;52.012;8.448;2023-05-07T12:20:36;21.60;99.90
8475;DHT22;4274;52.012;8.448;2023-05-07T12:23:03;21.20;99.90
8475;DHT22;4274;52.012;8.448;2023-05-07T12:25:35;21.00;99.90
8475;DHT22;4274;52.012;8.448;2023-05-07T12:28:04;20.80;99.90
8475;DHT22;4274;52.012;8.448;2023-05-07T12:30:38;20.90;99.90
8475;DHT22;4274;52.012;8.448;2023-05-07T12:33:03;21.00;99.90
8475;DHT22;4274;52.012;8.448;2023-05-07T12:35:36;20.90;99.90
8475;DHT22;4274;52.012;8.448;2023-05-07T12:38:08;20.90;99.90
8475;DHT22;4274;52.012;8.448;2023-05-07T12:40:47;21.00;99.90
8475;DHT22;4274;52.012;8.448;2023-05-07T12:43:24;21.10;99.90
8475;DHT22;4274;52.012;8.448;2023-05-07T12:45:51;21.10;99.90
8475;DHT22;4274;52.012;8.448;2023-05-07T12:48:19;21.10;99.90
8475;DHT22;4274;52.012;8.448;2023-05-07T12:50:45;21.10;99.90
8475;DHT22;4274;52.012;8.448;2023-05-07T12:53:12;21.00;99.90
8475;DHT22;4274;52.012;8.448;2023-05-07T12:55:57;21.00;99.90
8475;DHT22;4274;52.012;8.448;2023-05-07T12:58:32;20.90;99.90
8475;DHT22;4274;52.012;8.448;2023-05-07T13:01:00;20.90;99.90
8475;DHT22;4274;52.012;8.448;2023-05-07T13:03:31;20.90;99.90
8475;DHT22;4274;52.012;8.448;2023-05-07T13:08:42;20.90;99.90
8475;DHT22;4274;52.012;8.448;2023-05-07T13:11:09;20.60;99.90
8475;DHT22;4274;52.012;8.448;2023-05-07T13:13:37;20.40;99.90
8475;DHT22;4274;52.012;8.448;2023-05-07T13:16:05;20.30;99.90
8475;DHT22;4274;52.012;8.448;2023-05-07T13:18:32;20.00;99.90
8475;DHT22;4274;52.012;8.448;2023-05-07T13:20:57;19.80;99.90
8475;DHT22;4274;52.012;8.448;2023-05-07T13:23:23;19.60;99.90
8475;DHT22;4274;52.012;8.448;2023-05-07T13:25:49;19.50;99.90
8475;DHT22;4274;52.012;8.448;2023-05-07T13:28:16;19.80;99.90
8475;DHT22;4274;52.012;8.448;2023-05-07T13:30:41;20.00;99.90
8475;DHT22;4274;52.012;8.448;2023-05-07T13:33:08;20.10;99.90
8475;DHT22;4274;52.012;8.448;2023-05-07T13:35:34;20.00;99.90
8475;DHT22;4274;52.012;8.448;2023-05-07T13:37:59;19.80;99.90
8475;DHT22;4274;52.012;8.448;2023-05-07T13:40:25;19.60;99.90
8475;DHT22;4274;52.012;8.448;2023-05-07T13:42:51;19.30;99.90
8475;DHT22;4274;52.012;8.448;2023-05-07T13:45:18;19.10;99.90
8475;DHT22;4274;52.012;8.448;2023-05-07T13:47:44;19.00;99.90
8475;DHT22;4274;52.012;8.448;2023-05-07T13:50:10;18.90;99.90
8475;DHT22;4274;52.012;8.448;2023-05-07T13:52:37;18.60;99.90
8475;DHT22;4274;52.012;8.448;2023-05-07T13:55:03;18.60;99.90
8475;DHT22;4274;52.012;8.448;2023-05-07T13:57:29;18.60;99.90
8475;DHT22;4274;52.012;8.448;2023-05-07T13:59:54;18.60;99.90
8475;DHT22;4274;52.012;8.448;2023-05-07T14:02:20;18.50;99.90
8475;DHT22;4274;52.012;8.448;2023-05-07T14:04:46;18.60;99.90
8475;DHT22;4274;52.012;8.448;2023-05-07T14:07:11;18.60;99.90
8475;DHT22;4274;52.012;8.448;2023-05-07T14:09:37;18.60;99.90
8475;DHT22;4274;52.012;8.448;2023-05-07T14:12:03;18.60;99.90
8475;DHT22;4274;52.012;8.448;2023-05-07T14:14:28;18.70;99.90
8475;DHT22;4274;52.012;8.448;2023-05-07T14:16:54;18.60;99.90
8475;DHT22;4274;52.012;8.448;2023-05-07T14:19:20;18.40;99.90
8475;DHT22;4274;52.012;8.448;2023-05-07T14:21:48;18.30;99.90
8475;DHT22;4274;52.012;8.448;2023-05-07T14:24:13;18.30;99.90
8475;DHT22;4274;52.012;8.448;2023-05-07T14:26:39;18.30;99.90
8475;DHT22;4274;52.012;8.448;2023-05-07T14:29:05;18.40;99.90
8475;DHT22;4274;52.012;8.448;2023-05-07T14:31:30;18.40;99.90
8475;DHT22;4274;52.012;8.448;2023-05-07T14:33:56;18.30;99.90
8475;DHT22;4274;52.012;8.448;2023-05-07T14:36:23;18.20;99.90
8475;DHT22;4274;52.012;8.448;2023-05-07T14:38:52;18.00;99.90
8475;DHT22;4274;52.012;8.448;2023-05-07T14:41:18;17.90;99.90
8475;DHT22;4274;52.012;8.448;2023-05-07T14:43:43;17.80;99.90
8475;DHT22;4274;52.012;8.448;2023-05-07T14:46:16;17.80;99.90
8475;DHT22;4274;52.012;8.448;2023-05-07T14:48:43;17.70;99.90
8475;DHT22;4274;52.012;8.448;2023-05-07T14:51:08;17.70;99.90
8475;DHT22;4274;52.012;8.448;2023-05-07T14:53:34;17.70;99.90
8475;DHT22;4274;52.012;8.448;2023-05-07T14:55:59;17.80;99.90
8475;DHT22;4274;52.012;8.448;2023-05-07T14:58:25;17.80;99.90
8475;DHT22;4274;52.012;8.448;2023-05-07T15:00:51;17.70;99.90
8475;DHT22;4274;52.012;8.448;2023-05-07T15:03:16;17.60;99.90
8475;DHT22;4274;52.012;8.448;2023-05-07T15:05:42;17.60;99.90
8475;DHT22;4274;52.012;8.448;2023-05-07T15:08:08;17.50;99.90
8475;DHT22;4274;52.012;8.448;2023-05-07T15:10:37;17.40;99.90
8475;DHT22;4274;52.012;8.448;2023-05-07T15:13:07;17.40;99.90
8475;DHT22;4274;52.012;8.448;2023-05-07T15:15:32;17.40;99.90
8475;DHT22;4274;52.012;8.448;2023-05-07T15:17:58;17.40;99.90
8475;DHT22;4274;52.012;8.448;2023-05-07T15:20:25;17.40;99.90
8475;DHT22;4274;52.012;8.448;2023-05-07T15:22:51;17.30;99.90
8475;DHT22;4274;52.012;8.448;2023-05-07T15:25:17;17.30;99.90
8475;DHT22;4274;52.012;8.448;2023-05-07T15:27:42;17.40;99.90
8475;DHT22;4274;52.012;8.448;2023-05-07T15:30:08;17.30;99.90
8475;DHT22;4274;52.012;8.448;2023-05-07T15:32:35;17.30;99.90
8475;DHT22;4274;52.012;8.448;2023-05-07T15:35:01;17.30;99.90
8475;DHT22;4274;52.012;8.448;2023-05-07T15:37:27;17.20;99.90
8475;DHT22;4274;52.012;8.448;2023-05-07T15:39:53;17.20;99.90
8475;DHT22;4274;52.012;8.448;2023-05-07T15:42:18;17.10;99.90
8475;DHT22;4274;52.012;8.448;2023-05-07T15:44:44;17.10;99.90
8475;DHT22;4274;52.012;8.448;2023-05-07T15:47:10;17.10;99.90
8475;DHT22;4274;52.012;8.448;2023-05-07T15:49:35;17.10;99.90
8475;DHT22;4274;52.012;8.448;2023-05-07T15:52:01;17.10;99.90
8475;DHT22;4274;52.012;8.448;2023-05-07T15:54:26;17.10;99.90
8475;DHT22;4274;52.012;8.448;2023-05-07T15:56:52;17.30;99.90
8475;DHT22;4274;52.012;8.448;2023-05-07T15:59:17;17.30;99.90
8475;DHT22;4274;52.012;8.448;2023-05-07T16:01:43;17.30;99.90
8475;DHT22;4274;52.012;8.448;2023-05-07T16:04:09;17.30;99.90
8475;DHT22;4274;52.012;8.448;2023-05-07T16:06:35;17.30;99.90
8475;DHT22;4274;52.012;8.448;2023-05-07T16:09:01;17.30;99.90
8475;DHT22;4274;52.012;8.448;2023-05-07T16:11:26;17.30;99.90
8475;DHT22;4274;52.012;8.448;2023-05-07T16:13:55;17.20;99.90
8475;DHT22;4274;52.012;8.448;2023-05-07T16:16:20;17.20;99.90